Time;durP1;ratioP1;P1;durP2;ratioP2;P2;SDS_P1;SDS_P2;PMS_P1;PMS_P2;Temp;Humidity;BMP_temperature;BMP_pressure;BME280_temperature;BME280_humidity;BME280_pressure;Samples;Min_cycle;Max_cycle;Signal;HPM_P1;HPM_P2
2023/12/24 00:01:11;;;;;;;;;;;9.30;99.90;;;;;;5098950;28;19923;-73
2023/12/24 00:03:37;;;;;;;;;;;9.30;99.90;;;;;;5104888;27;19926;-73
2023/12/24 00:06:03;;;;;;;;;;;9.30;99.90;;;;;;5104112;27;19924;-74
2023/12/24 00:08:28;;;;;;;;;;;9.30;99.90;;;;;;5102926;27;20390;-74
2023/12/24 00:10:55;;;;;;;;;;;9.20;99.90;;;;;;5100342;27;20324;-74
2023/12/24 00:13:21;;;;;;;;;;;9.30;99.90;;;;;;5104014;27;20018;-73
2023/12/24 00:15:46;;;;;;;;;;;9.30;99.90;;;;;;5103803;27;20744;-74
2023/12/24 00:18:12;;;;;;;;;;;9.20;99.90;;;;;;5096526;28;19949;-73
2023/12/24 00:20:37;;;;;;;;;;;9.30;99.90;;;;;;5096697;27;19924;-73
2023/12/24 00:23:04;;;;;;;;;;;9.30;99.90;;;;;;5104631;27;19926;-73
2023/12/24 00:25:30;;;;;;;;;;;9.30;99.90;;;;;;5103221;27;19924;-73
2023/12/24 00:27:55;;;;;;;;;;;9.30;99.90;;;;;;5100678;27;19935;-73
2023/12/24 00:30:20;;;;;;;;;;;9.30;99.90;;;;;;5101932;28;19981;-73
2023/12/24 00:32:46;;;;;;;;;;;9.20;99.90;;;;;;5083689;28;20339;-74
2023/12/24 00:35:12;;;;;;;;;;;9.30;99.90;;;;;;5102299;27;19924;-73
2023/12/24 00:37:37;;;;;;;;;;;9.40;99.90;;;;;;5103162;27;19924;-73
2023/12/24 00:40:03;;;;;;;;;;;9.30;99.90;;;;;;5103763;27;19930;-73
2023/12/24 00:42:28;;;;;;;;;;;9.30;99.90;;;;;;5084012;27;19946;-72
2023/12/24 00:44:54;;;;;;;;;;;9.30;99.90;;;;;;5102391;27;19973;-72
2023/12/24 00:47:19;;;;;;;;;;;9.30;99.90;;;;;;5104999;27;20022;-72
2023/12/24 00:49:45;;;;;;;;;;;9.20;99.90;;;;;;5102789;27;19932;-72
2023/12/24 00:52:11;;;;;;;;;;;9.30;99.90;;;;;;5100890;28;19943;-73
2023/12/24 00:54:37;;;;;;;;;;;9.30;99.90;;;;;;5103808;27;19924;-73
2023/12/24 00:57:02;;;;;;;;;;;9.30;99.90;;;;;;5103344;27;19954;-72
2023/12/24 00:59:28;;;;;;;;;;;9.30;99.90;;;;;;5100445;27;19927;-72
2023/12/24 01:01:53;;;;;;;;;;;9.30;99.90;;;;;;5104214;27;21983;-72
2023/12/24 01:04:19;;;;;;;;;;;9.20;99.90;;;;;;5087079;27;19931;-72
2023/12/24 01:06:44;;;;;;;;;;;9.20;99.90;;;;;;5101832;27;20599;-72
2023/12/24 01:09:10;;;;;;;;;;;9.20;99.90;;;;;;5102889;27;20409;-72
2023/12/24 01:11:35;;;;;;;;;;;9.30;99.90;;;;;;5083583;27;19936;-72
2023/12/24 01:14:01;;;;;;;;;;;9.30;99.90;;;;;;5121305;27;19927;-72
2023/12/24 01:16:26;;;;;;;;;;;9.20;99.90;;;;;;5110234;27;19957;-72
2023/12/24 01:18:52;;;;;;;;;;;9.30;99.90;;;;;;5113188;27;20339;-72
2023/12/24 01:21:17;;;;;;;;;;;9.20;99.90;;;;;;5120253;27;19976;-72
2023/12/24 01:23:43;;;;;;;;;;;9.30;99.90;;;;;;5102675;27;19932;-71
2023/12/24 01:26:08;;;;;;;;;;;9.20;99.90;;;;;;5102284;27;19944;-72
2023/12/24 01:28:34;;;;;;;;;;;9.20;99.90;;;;;;5101842;27;19932;-72
2023/12/24 01:31:00;;;;;;;;;;;9.30;99.90;;;;;;5102479;27;21923;-72
2023/12/24 01:33:26;;;;;;;;;;;9.30;99.90;;;;;;5117409;27;19942;-73
2023/12/24 01:35:51;;;;;;;;;;;9.20;99.90;;;;;;5100864;27;20586;-72
2023/12/24 01:38:17;;;;;;;;;;;9.30;99.90;;;;;;5096363;28;19934;-73
2023/12/24 01:40:49;;;;;;;;;;;9.20;99.90;;;;;;5084192;28;19946;-74
2023/12/24 01:43:15;;;;;;;;;;;9.20;99.90;;;;;;5116991;27;19924;-73
2023/12/24 01:45:41;;;;;;;;;;;9.30;99.90;;;;;;5086527;28;19928;-73
2023/12/24 01:48:06;;;;;;;;;;;9.30;99.90;;;;;;5097358;28;19946;-73
2023/12/24 01:50:32;;;;;;;;;;;9.30;99.90;;;;;;5100578;28;19938;-73
2023/12/24 01:52:58;;;;;;;;;;;9.30;99.90;;;;;;5115919;28;19924;-73
2023/12/24 01:55:24;;;;;;;;;;;9.30;99.90;;;;;;5118151;28;19963;-73
2023/12/24 01:57:50;;;;;;;;;;;9.30;99.90;;;;;;5105207;28;20054;-73
2023/12/24 02:00:16;;;;;;;;;;;9.30;99.90;;;;;;5101561;28;20457;-73
2023/12/24 02:02:42;;;;;;;;;;;9.20;99.90;;;;;;5085787;28;19970;-73
2023/12/24 02:05:07;;;;;;;;;;;9.30;99.90;;;;;;5100457;28;19970;-73
2023/12/24 02:07:34;;;;;;;;;;;9.30;99.90;;;;;;5100206;28;20144;-73
2023/12/24 02:10:01;;;;;;;;;;;9.30;99.90;;;;;;5119834;28;19999;-73
2023/12/24 02:12:26;;;;;;;;;;;9.30;99.90;;;;;;5101785;28;19937;-72
2023/12/24 02:14:52;;;;;;;;;;;9.40;99.90;;;;;;5085341;28;19927;-73
2023/12/24 02:17:17;;;;;;;;;;;9.40;99.90;;;;;;5101437;28;19925;-73
2023/12/24 02:19:43;;;;;;;;;;;9.40;99.90;;;;;;5101736;27;20014;-73
2023/12/24 02:22:09;;;;;;;;;;;9.40;99.90;;;;;;5090370;27;19935;-72
2023/12/24 02:24:34;;;;;;;;;;;9.40;99.90;;;;;;5102184;27;19939;-73
2023/12/24 02:27:05;;;;;;;;;;;9.30;99.90;;;;;;5109785;27;20014;-73
2023/12/24 02:29:34;;;;;;;;;;;9.40;99.90;;;;;;5114875;27;19931;-72
2023/12/24 02:32:05;;;;;;;;;;;9.30;99.90;;;;;;5107022;27;20018;-73
2023/12/24 02:34:31;;;;;;;;;;;9.40;99.90;;;;;;5108065;27;19932;-72
2023/12/24 02:36:57;;;;;;;;;;;9.30;99.90;;;;;;5104059;27;19983;-72
2023/12/24 02:39:22;;;;;;;;;;;9.40;99.90;;;;;;5122882;27;19935;-73
2023/12/24 02:41:48;;;;;;;;;;;9.40;99.90;;;;;;5119720;27;19959;-72
2023/12/24 02:44:13;;;;;;;;;;;9.40;99.90;;;;;;5111011;27;20023;-73
2023/12/24 02:46:39;;;;;;;;;;;9.40;99.90;;;;;;5086546;27;21518;-73
2023/12/24 02:49:04;;;;;;;;;;;9.40;99.90;;;;;;5121625;27;20041;-73
2023/12/24 02:51:30;;;;;;;;;;;9.40;99.90;;;;;;5103145;27;19986;-73
2023/12/24 02:53:55;;;;;;;;;;;9.40;99.90;;;;;;5088427;27;19931;-72
2023/12/24 02:56:21;;;;;;;;;;;9.50;99.90;;;;;;5116074;27;19928;-73
2023/12/24 02:58:46;;;;;;;;;;;9.40;99.90;;;;;;5122547;27;19935;-73
2023/12/24 03:01:12;;;;;;;;;;;9.50;99.90;;;;;;5103333;27;19976;-73
2023/12/24 03:03:37;;;;;;;;;;;9.50;99.90;;;;;;5107447;27;19939;-73
2023/12/24 03:06:03;;;;;;;;;;;9.50;99.90;;;;;;5104406;27;19933;-73
2023/12/24 03:08:29;;;;;;;;;;;9.40;99.90;;;;;;5104318;27;19934;-73
2023/12/24 03:10:54;;;;;;;;;;;9.40;99.90;;;;;;5117718;27;19931;-72
2023/12/24 03:13:20;;;;;;;;;;;9.50;99.90;;;;;;5083791;28;19932;-73
2023/12/24 03:15:45;;;;;;;;;;;9.40;99.90;;;;;;5069162;27;20424;-73
2023/12/24 03:18:11;;;;;;;;;;;9.50;99.90;;;;;;5102836;27;19927;-73
2023/12/24 03:20:36;;;;;;;;;;;9.40;99.90;;;;;;5113820;27;19927;-73
2023/12/24 03:23:02;;;;;;;;;;;9.40;99.90;;;;;;5103170;27;19992;-72
2023/12/24 03:25:27;;;;;;;;;;;9.50;99.90;;;;;;5102421;27;20015;-73
2023/12/24 03:27:53;;;;;;;;;;;9.50;99.90;;;;;;5095701;27;20367;-73
2023/12/24 03:30:18;;;;;;;;;;;9.50;99.90;;;;;;5102970;27;19930;-73
2023/12/24 03:32:44;;;;;;;;;;;9.50;99.90;;;;;;5103507;27;19923;-73
2023/12/24 03:35:09;;;;;;;;;;;9.50;99.90;;;;;;5102679;27;20000;-73
2023/12/24 03:37:35;;;;;;;;;;;9.50;99.90;;;;;;5099905;27;19938;-73
2023/12/24 03:40:00;;;;;;;;;;;9.50;99.90;;;;;;5110817;27;19939;-72
2023/12/24 03:42:26;;;;;;;;;;;9.50;99.90;;;;;;5089164;27;19930;-72
2023/12/24 03:44:51;;;;;;;;;;;9.50;99.90;;;;;;5105421;27;19928;-73
2023/12/24 03:47:17;;;;;;;;;;;9.50;99.90;;;;;;5118636;27;21710;-72
2023/12/24 03:49:42;;;;;;;;;;;9.50;99.90;;;;;;5121572;27;19923;-73
2023/12/24 03:52:08;;;;;;;;;;;9.50;99.90;;;;;;5102076;27;19980;-73
2023/12/24 03:54:33;;;;;;;;;;;9.60;99.90;;;;;;5101408;27;20550;-73
2023/12/24 03:56:59;;;;;;;;;;;9.60;99.90;;;;;;5107733;27;19931;-73
2023/12/24 03:59:24;;;;;;;;;;;9.60;99.90;;;;;;5120221;27;20022;-73
2023/12/24 04:01:50;;;;;;;;;;;9.60;99.90;;;;;;5114496;27;19986;-73
2023/12/24 04:04:15;;;;;;;;;;;9.60;99.90;;;;;;5102336;27;20271;-73
2023/12/24 04:06:41;;;;;;;;;;;9.60;99.90;;;;;;5103788;27;20198;-73
2023/12/24 04:09:09;;;;;;;;;;;9.60;99.90;;;;;;5098432;27;19924;-72
2023/12/24 04:11:34;;;;;;;;;;;9.60;99.90;;;;;;5102753;27;19928;-72
2023/12/24 04:14:00;;;;;;;;;;;9.60;99.90;;;;;;5121641;27;19939;-72
2023/12/24 04:16:25;;;;;;;;;;;9.60;99.90;;;;;;5100289;27;19928;-73
2023/12/24 04:18:51;;;;;;;;;;;9.60;99.90;;;;;;5122178;27;19967;-72
2023/12/24 04:21:16;;;;;;;;;;;9.60;99.90;;;;;;5101777;27;20526;-73
2023/12/24 04:23:42;;;;;;;;;;;9.70;99.90;;;;;;5101840;27;20416;-72
2023/12/24 04:26:08;;;;;;;;;;;9.70;99.90;;;;;;5082086;27;19930;-72
2023/12/24 04:28:33;;;;;;;;;;;9.70;99.90;;;;;;5105841;27;20318;-72
2023/12/24 04:30:59;;;;;;;;;;;9.70;99.90;;;;;;5102953;27;19927;-73
2023/12/24 04:33:24;;;;;;;;;;;9.80;99.90;;;;;;5102764;27;19973;-72
2023/12/24 04:35:50;;;;;;;;;;;9.70;99.90;;;;;;5099132;27;20847;-72
2023/12/24 04:38:15;;;;;;;;;;;9.70;99.90;;;;;;5103443;27;20367;-72
2023/12/24 04:40:41;;;;;;;;;;;9.70;99.90;;;;;;5117266;27;19932;-72
2023/12/24 04:43:07;;;;;;;;;;;9.80;99.90;;;;;;5127198;27;19977;-72
2023/12/24 04:50:45;;;;;;;;;;;9.80;99.90;;;;;;5118717;27;19931;-70
2023/12/24 04:53:13;;;;;;;;;;;9.90;99.90;;;;;;5093167;27;20337;-71
2023/12/24 04:55:39;;;;;;;;;;;9.90;99.90;;;;;;5106566;27;19968;-70
2023/12/24 04:58:04;;;;;;;;;;;9.80;99.90;;;;;;5113262;27;19931;-70
2023/12/24 05:00:30;;;;;;;;;;;9.90;99.90;;;;;;5127170;27;20109;-70
2023/12/24 05:02:56;;;;;;;;;;;9.90;99.90;;;;;;5127332;27;19930;-70
2023/12/24 05:05:24;;;;;;;;;;;9.90;99.90;;;;;;5130616;27;19930;-70
2023/12/24 05:07:49;;;;;;;;;;;9.90;99.90;;;;;;5126449;27;19923;-70
2023/12/24 05:10:15;;;;;;;;;;;9.90;99.90;;;;;;5109815;27;20342;-70
2023/12/24 05:12:40;;;;;;;;;;;10.00;99.90;;;;;;5112221;27;19923;-70
2023/12/24 05:15:06;;;;;;;;;;;10.00;99.90;;;;;;5112250;27;19923;-70
2023/12/24 05:17:32;;;;;;;;;;;9.90;99.90;;;;;;5111805;27;19923;-70
2023/12/24 05:19:57;;;;;;;;;;;10.00;99.90;;;;;;5126476;27;19924;-70
2023/12/24 05:22:23;;;;;;;;;;;10.00;99.90;;;;;;5112158;27;19930;-70
2023/12/24 05:24:48;;;;;;;;;;;10.00;99.90;;;;;;5111708;27;19924;-70
2023/12/24 05:27:14;;;;;;;;;;;10.10;99.90;;;;;;5108800;27;19931;-70
2023/12/24 05:29:40;;;;;;;;;;;10.10;99.90;;;;;;5113199;27;19923;-70
2023/12/24 05:32:05;;;;;;;;;;;10.00;99.90;;;;;;5103301;27;19931;-70
2023/12/24 05:34:31;;;;;;;;;;;10.10;99.90;;;;;;5127715;27;19930;-70
2023/12/24 05:37:00;;;;;;;;;;;10.10;99.90;;;;;;5116295;27;20010;-70
2023/12/24 05:39:26;;;;;;;;;;;10.20;99.90;;;;;;5126701;27;19930;-70
2023/12/24 05:41:52;;;;;;;;;;;10.10;99.90;;;;;;5110379;28;20289;-70
2023/12/24 05:44:17;;;;;;;;;;;10.10;99.90;;;;;;5124958;27;19923;-70
2023/12/24 05:46:43;;;;;;;;;;;10.20;99.90;;;;;;5105215;28;19943;-70
2023/12/24 05:49:08;;;;;;;;;;;10.20;99.90;;;;;;5089295;28;20286;-70
2023/12/24 05:51:34;;;;;;;;;;;10.20;99.90;;;;;;5092330;28;20022;-70
2023/12/24 05:54:00;;;;;;;;;;;10.20;99.90;;;;;;5091635;28;19935;-70
2023/12/24 05:56:25;;;;;;;;;;;10.30;99.90;;;;;;5095565;27;19979;-70
2023/12/24 05:58:51;;;;;;;;;;;10.20;99.90;;;;;;5107342;28;19931;-70
2023/12/24 06:01:16;;;;;;;;;;;10.20;99.90;;;;;;5113814;28;19931;-70
2023/12/24 06:03:42;;;;;;;;;;;10.20;99.90;;;;;;5092177;28;19998;-70
2023/12/24 06:06:07;;;;;;;;;;;10.20;99.90;;;;;;5078923;28;19924;-70
2023/12/24 06:08:33;;;;;;;;;;;10.20;99.90;;;;;;5091196;28;19924;-70
2023/12/24 06:10:58;;;;;;;;;;;10.30;99.90;;;;;;5114057;28;19973;-69
2023/12/24 06:13:24;;;;;;;;;;;10.30;99.90;;;;;;5114563;28;19985;-69
2023/12/24 06:15:49;;;;;;;;;;;10.20;99.90;;;;;;5113201;28;20012;-69
2023/12/24 06:18:15;;;;;;;;;;;10.20;99.90;;;;;;5099500;28;20352;-69
2023/12/24 06:20:40;;;;;;;;;;;10.20;99.90;;;;;;5112704;28;19928;-69
2023/12/24 06:23:06;;;;;;;;;;;10.20;99.90;;;;;;5109873;28;19932;-68
2023/12/24 06:25:33;;;;;;;;;;;10.30;99.90;;;;;;5108727;28;19981;-69
2023/12/24 06:27:59;;;;;;;;;;;10.20;99.90;;;;;;5112968;28;19931;-70
2023/12/24 06:30:24;;;;;;;;;;;10.30;99.90;;;;;;5112771;28;19924;-70
2023/12/24 06:32:50;;;;;;;;;;;10.30;99.90;;;;;;5092442;28;19931;-70
2023/12/24 06:35:16;;;;;;;;;;;10.30;99.90;;;;;;5111049;28;19971;-70
2023/12/24 06:37:42;;;;;;;;;;;10.30;99.90;;;;;;5114873;28;19963;-70
2023/12/24 06:40:07;;;;;;;;;;;10.40;99.90;;;;;;5111411;28;20258;-70
2023/12/24 06:42:33;;;;;;;;;;;10.30;99.90;;;;;;5111787;28;19977;-70
2023/12/24 06:44:58;;;;;;;;;;;10.30;99.90;;;;;;5109978;28;19923;-70
2023/12/24 06:47:24;;;;;;;;;;;10.40;99.90;;;;;;5112984;28;19927;-70
2023/12/24 06:49:49;;;;;;;;;;;10.50;99.90;;;;;;5106944;28;19931;-70
2023/12/24 06:52:15;;;;;;;;;;;10.40;99.90;;;;;;5094639;28;19931;-70
2023/12/24 06:54:40;;;;;;;;;;;10.40;99.90;;;;;;5090945;28;20457;-70
2023/12/24 06:57:07;;;;;;;;;;;10.50;99.90;;;;;;5094884;28;20343;-70
2023/12/24 06:59:33;;;;;;;;;;;10.50;99.90;;;;;;5095265;28;19931;-70
2023/12/24 07:01:58;;;;;;;;;;;10.40;99.90;;;;;;5093298;28;19923;-70
2023/12/24 07:04:24;;;;;;;;;;;10.50;99.90;;;;;;5106035;28;20069;-70
2023/12/24 07:06:49;;;;;;;;;;;10.60;99.90;;;;;;5111245;28;19932;-70
2023/12/24 07:09:15;;;;;;;;;;;10.60;99.90;;;;;;5108568;28;19927;-70
2023/12/24 07:11:40;;;;;;;;;;;10.60;99.90;;;;;;5112382;28;19928;-70
2023/12/24 07:14:06;;;;;;;;;;;10.60;99.90;;;;;;5109801;28;19973;-70
2023/12/24 07:16:31;;;;;;;;;;;10.60;99.90;;;;;;5112801;28;20014;-70
2023/12/24 07:18:57;;;;;;;;;;;10.60;99.90;;;;;;5090783;28;19963;-71
2023/12/24 07:21:23;;;;;;;;;;;10.60;99.90;;;;;;5113172;27;20019;-71
2023/12/24 07:23:48;;;;;;;;;;;10.70;99.90;;;;;;5093507;28;20305;-70
2023/12/24 07:26:14;;;;;;;;;;;10.70;99.90;;;;;;5087689;28;19924;-70
2023/12/24 07:28:40;;;;;;;;;;;10.70;99.90;;;;;;5091775;28;19932;-70
2023/12/24 07:31:05;;;;;;;;;;;10.70;99.90;;;;;;5107577;28;20408;-70
2023/12/24 07:33:31;;;;;;;;;;;10.60;99.90;;;;;;5091569;28;19932;-69
2023/12/24 07:35:56;;;;;;;;;;;10.60;99.90;;;;;;5089980;28;19923;-70
2023/12/24 07:38:22;;;;;;;;;;;10.60;99.90;;;;;;5076644;28;20393;-70
2023/12/24 07:40:47;;;;;;;;;;;10.60;99.90;;;;;;5088805;28;20379;-70
2023/12/24 07:43:13;;;;;;;;;;;10.60;99.90;;;;;;5106415;28;19923;-70
2023/12/24 07:45:38;;;;;;;;;;;10.60;99.90;;;;;;5088791;28;20068;-70
2023/12/24 07:48:04;;;;;;;;;;;10.60;99.90;;;;;;5110058;28;19924;-69
2023/12/24 07:50:29;;;;;;;;;;;10.70;99.90;;;;;;5064987;28;19979;-69
2023/12/24 07:52:55;;;;;;;;;;;10.60;99.90;;;;;;5069381;28;19999;-70
2023/12/24 07:55:20;;;;;;;;;;;10.60;99.90;;;;;;5066202;28;20015;-70
2023/12/24 07:57:46;;;;;;;;;;;10.70;99.90;;;;;;5065038;28;19932;-70
2023/12/24 08:00:12;;;;;;;;;;;10.70;99.90;;;;;;5065176;28;20452;-70
2023/12/24 08:02:37;;;;;;;;;;;10.70;99.90;;;;;;5064284;28;19928;-70
2023/12/24 08:05:03;;;;;;;;;;;10.80;99.90;;;;;;5067829;28;19921;-70
2023/12/24 08:07:28;;;;;;;;;;;10.80;99.90;;;;;;5061095;28;20153;-70
2023/12/24 08:09:56;;;;;;;;;;;10.80;99.90;;;;;;5056121;28;20223;-70
2023/12/24 08:12:21;;;;;;;;;;;10.80;99.90;;;;;;5060963;28;20402;-70
2023/12/24 08:14:47;;;;;;;;;;;10.80;99.90;;;;;;5063338;28;19932;-70
2023/12/24 08:17:13;;;;;;;;;;;10.80;99.90;;;;;;5062132;28;19931;-70
2023/12/24 08:19:38;;;;;;;;;;;10.80;99.90;;;;;;5059387;28;19925;-70
2023/12/24 08:22:03;;;;;;;;;;;10.80;99.90;;;;;;5062117;28;19932;-70
2023/12/24 08:24:29;;;;;;;;;;;10.80;99.90;;;;;;5063614;28;19920;-70
2023/12/24 08:26:55;;;;;;;;;;;10.80;99.90;;;;;;5063820;28;20287;-70
2023/12/24 08:29:20;;;;;;;;;;;10.90;99.90;;;;;;5064951;28;20034;-70
2023/12/24 08:31:46;;;;;;;;;;;10.80;99.90;;;;;;5061736;28;20448;-70
2023/12/24 08:34:11;;;;;;;;;;;10.90;99.90;;;;;;5061529;28;19940;-70
2023/12/24 08:36:37;;;;;;;;;;;10.90;99.90;;;;;;5066242;28;19920;-70
2023/12/24 08:39:02;;;;;;;;;;;10.90;99.90;;;;;;5065699;28;19956;-70
2023/12/24 08:41:28;;;;;;;;;;;11.00;99.90;;;;;;5061531;28;20436;-70
2023/12/24 08:43:53;;;;;;;;;;;11.00;99.90;;;;;;5062825;28;19928;-69
2023/12/24 08:46:19;;;;;;;;;;;11.00;99.90;;;;;;5059398;28;20021;-70
2023/12/24 08:48:44;;;;;;;;;;;11.00;99.90;;;;;;5062178;28;20123;-71
2023/12/24 08:51:10;;;;;;;;;;;11.10;99.90;;;;;;5062674;28;19967;-71
2023/12/24 08:53:35;;;;;;;;;;;11.10;99.90;;;;;;5061858;28;20019;-70
2023/12/24 08:56:01;;;;;;;;;;;11.10;99.90;;;;;;5062817;28;20019;-70
2023/12/24 08:58:27;;;;;;;;;;;11.10;99.90;;;;;;5061120;28;19925;-71
2023/12/24 09:00:52;;;;;;;;;;;11.20;99.90;;;;;;5060618;28;20428;-70
2023/12/24 09:03:18;;;;;;;;;;;11.10;99.90;;;;;;5064490;28;20349;-70
2023/12/24 09:05:43;;;;;;;;;;;11.20;99.90;;;;;;5045911;28;19936;-70
2023/12/24 09:08:09;;;;;;;;;;;11.10;99.90;;;;;;5063691;28;20031;-70
2023/12/24 09:10:34;;;;;;;;;;;11.20;99.90;;;;;;5059033;28;20026;-70
2023/12/24 09:13:00;;;;;;;;;;;11.10;99.90;;;;;;5063465;28;19976;-70
2023/12/24 09:15:25;;;;;;;;;;;11.10;99.90;;;;;;5060012;28;20029;-70
2023/12/24 09:17:51;;;;;;;;;;;11.20;99.90;;;;;;5049381;28;19932;-70
2023/12/24 09:20:17;;;;;;;;;;;11.20;99.90;;;;;;5066040;28;19932;-70
2023/12/24 09:22:42;;;;;;;;;;;11.30;99.90;;;;;;5061766;28;19932;-71
2023/12/24 09:25:08;;;;;;;;;;;11.20;99.90;;;;;;5057765;28;20339;-71
2023/12/24 09:27:33;;;;;;;;;;;11.20;99.90;;;;;;5058058;28;19925;-70
2023/12/24 09:30:04;;;;;;;;;;;11.20;99.90;;;;;;5061563;28;20318;-71
2023/12/24 09:32:32;;;;;;;;;;;11.20;99.90;;;;;;5057567;28;19924;-71
2023/12/24 09:34:58;;;;;;;;;;;11.20;99.90;;;;;;5045819;28;19932;-68
2023/12/24 09:37:26;;;;;;;;;;;11.30;99.90;;;;;;5064243;28;19925;-68
2023/12/24 09:39:52;;;;;;;;;;;11.20;99.90;;;;;;5063417;28;19928;-68
2023/12/24 09:42:18;;;;;;;;;;;11.30;99.90;;;;;;5063375;28;19925;-68
2023/12/24 09:44:44;;;;;;;;;;;11.30;99.90;;;;;;5052280;28;19973;-68
2023/12/24 09:47:10;;;;;;;;;;;11.20;99.90;;;;;;5065273;28;20015;-68
2023/12/24 09:49:35;;;;;;;;;;;11.20;99.90;;;;;;5075027;28;20011;-69
2023/12/24 09:52:01;;;;;;;;;;;11.30;99.90;;;;;;5076131;28;19932;-70
2023/12/24 09:54:27;;;;;;;;;;;11.20;99.90;;;;;;5070739;28;19931;-69
2023/12/24 09:56:52;;;;;;;;;;;11.20;99.90;;;;;;5086067;28;19947;-69
2023/12/24 09:59:18;;;;;;;;;;;11.30;99.90;;;;;;5086908;28;19924;-70
2023/12/24 10:01:44;;;;;;;;;;;11.30;99.90;;;;;;5086796;28;20340;-70
2023/12/24 10:04:10;;;;;;;;;;;11.30;99.90;;;;;;5083357;28;20302;-70
2023/12/24 10:07:02;;;;;;;;;;;11.30;99.90;;;;;;5084719;28;19928;-69
2023/12/24 10:09:51;;;;;;;;;;;11.30;99.90;;;;;;5081742;28;20622;-70
2023/12/24 10:12:18;;;;;;;;;;;11.40;99.90;;;;;;5066839;28;20371;-70
2023/12/24 10:14:52;;;;;;;;;;;11.40;99.90;;;;;;5090089;28;20410;-70
2023/12/24 10:17:26;;;;;;;;;;;11.50;99.90;;;;;;5084790;28;19955;-70
2023/12/24 10:19:52;;;;;;;;;;;11.50;99.90;;;;;;5072597;28;19925;-69
2023/12/24 10:22:22;;;;;;;;;;;11.40;99.90;;;;;;5071334;28;20406;-70
2023/12/24 10:24:47;;;;;;;;;;;11.40;99.90;;;;;;5079490;28;19981;-70
2023/12/24 10:27:14;;;;;;;;;;;11.50;99.90;;;;;;5069266;28;19924;-70
2023/12/24 10:29:43;;;;;;;;;;;11.40;99.90;;;;;;5085962;28;19927;-71
2023/12/24 10:32:12;;;;;;;;;;;11.50;99.90;;;;;;5083447;28;19924;-71
2023/12/24 10:34:37;;;;;;;;;;;11.50;99.90;;;;;;5085109;28;20309;-68
2023/12/24 10:37:16;;;;;;;;;;;11.50;99.90;;;;;;5081449;28;20026;-71
2023/12/24 10:39:41;;;;;;;;;;;11.50;99.90;;;;;;5077793;28;19943;-72
2023/12/24 10:42:07;;;;;;;;;;;11.60;99.90;;;;;;5068287;28;19946;-71
2023/12/24 10:44:33;;;;;;;;;;;11.50;99.90;;;;;;5085214;28;19932;-68
2023/12/24 10:46:59;;;;;;;;;;;11.50;99.90;;;;;;5083555;28;19924;-69
2023/12/24 10:49:24;;;;;;;;;;;11.50;99.90;;;;;;5081601;28;20344;-69
2023/12/24 10:51:50;;;;;;;;;;;11.50;99.90;;;;;;5082933;28;19935;-69
2023/12/24 10:54:16;;;;;;;;;;;11.50;99.90;;;;;;5080516;28;20547;-69
2023/12/24 10:56:47;;;;;;;;;;;11.50;99.90;;;;;;5082398;28;19931;-71
2023/12/24 10:59:14;;;;;;;;;;;11.50;99.90;;;;;;5081374;28;20401;-70
2023/12/24 11:01:40;;;;;;;;;;;11.40;99.90;;;;;;5078949;28;20044;-70
2023/12/24 11:04:06;;;;;;;;;;;11.40;99.90;;;;;;5079462;28;19924;-70
2023/12/24 11:06:34;;;;;;;;;;;11.40;99.90;;;;;;5080502;28;20460;-71
2023/12/24 11:08:59;;;;;;;;;;;11.40;99.90;;;;;;5082642;28;19992;-70
2023/12/24 11:11:25;;;;;;;;;;;11.40;99.90;;;;;;5083221;28;20306;-69
2023/12/24 11:13:51;;;;;;;;;;;11.50;99.90;;;;;;5082298;28;20006;-68
2023/12/24 11:16:46;;;;;;;;;;;11.50;99.90;;;;;;5067746;28;19935;-68
2023/12/24 11:19:24;;;;;;;;;;;11.50;99.90;;;;;;5075327;28;19939;-68
2023/12/24 11:22:10;;;;;;;;;;;11.60;99.90;;;;;;5084193;28;19931;-68
2023/12/24 11:24:41;;;;;;;;;;;11.50;99.90;;;;;;5089019;28;19928;-68
2023/12/24 11:27:08;;;;;;;;;;;11.50;99.90;;;;;;5083076;28;20010;-67
2023/12/24 11:29:40;;;;;;;;;;;11.50;99.90;;;;;;5082270;28;19935;-69
2023/12/24 11:32:23;;;;;;;;;;;11.50;99.90;;;;;;5084438;28;19946;-68
2023/12/24 11:34:49;;;;;;;;;;;11.60;99.90;;;;;;5083201;28;19936;-68
2023/12/24 11:37:25;;;;;;;;;;;11.50;99.90;;;;;;5069153;28;20307;-68
2023/12/24 11:39:58;;;;;;;;;;;11.50;99.90;;;;;;5068910;28;20414;-68
2023/12/24 11:42:37;;;;;;;;;;;11.50;99.90;;;;;;5084332;28;19936;-68
2023/12/24 11:45:02;;;;;;;;;;;11.60;99.90;;;;;;5063976;28;19982;-69
2023/12/24 11:47:28;;;;;;;;;;;11.60;99.90;;;;;;5086264;28;19944;-69
2023/12/24 11:49:54;;;;;;;;;;;11.60;99.90;;;;;;5099468;28;19927;-69
2023/12/24 11:52:19;;;;;;;;;;;11.60;99.90;;;;;;5110357;27;19930;-69
2023/12/24 11:54:46;;;;;;;;;;;11.60;99.90;;;;;;5073830;28;20340;-68
2023/12/24 11:57:23;;;;;;;;;;;11.60;99.90;;;;;;5086717;28;19943;-68
2023/12/24 11:59:48;;;;;;;;;;;11.60;99.90;;;;;;5089932;28;19928;-70
2023/12/24 12:02:14;;;;;;;;;;;11.70;99.90;;;;;;5107400;28;20287;-69
2023/12/24 12:04:40;;;;;;;;;;;11.60;99.90;;;;;;5107873;27;19919;-69
2023/12/24 12:07:05;;;;;;;;;;;11.70;99.90;;;;;;5110844;27;20464;-69
2023/12/24 12:09:34;;;;;;;;;;;11.60;99.90;;;;;;5088603;28;19955;-69
2023/12/24 12:11:59;;;;;;;;;;;11.70;99.90;;;;;;5102772;28;19924;-71
2023/12/24 12:14:25;;;;;;;;;;;11.70;99.90;;;;;;5079508;28;19927;-69
2023/12/24 12:16:50;;;;;;;;;;;11.60;99.90;;;;;;5080158;28;20337;-69
2023/12/24 12:19:16;;;;;;;;;;;11.70;99.90;;;;;;5082816;27;19934;-70
2023/12/24 12:21:43;;;;;;;;;;;11.70;99.90;;;;;;5083932;28;20220;-72
2023/12/24 12:24:09;;;;;;;;;;;11.70;99.90;;;;;;5084188;28;19919;-70
2023/12/24 12:26:35;;;;;;;;;;;11.70;99.90;;;;;;5083671;28;19924;-70
2023/12/24 12:29:00;;;;;;;;;;;11.80;99.90;;;;;;5077419;28;19934;-71
2023/12/24 12:31:26;;;;;;;;;;;11.70;99.90;;;;;;5074007;28;19924;-71
2023/12/24 12:33:51;;;;;;;;;;;11.70;99.90;;;;;;5078171;28;19966;-69
2023/12/24 12:36:17;;;;;;;;;;;11.80;99.90;;;;;;5083251;28;20610;-71
2023/12/24 12:38:42;;;;;;;;;;;11.80;99.90;;;;;;5100910;28;19935;-70
2023/12/24 12:41:08;;;;;;;;;;;11.80;99.90;;;;;;5101228;28;19931;-71
2023/12/24 12:43:34;;;;;;;;;;;11.80;99.90;;;;;;5096481;28;19939;-70
2023/12/24 12:46:00;;;;;;;;;;;11.90;99.90;;;;;;5097762;28;19924;-70
2023/12/24 12:48:25;;;;;;;;;;;11.90;99.90;;;;;;5091372;28;19924;-69
2023/12/24 12:50:51;;;;;;;;;;;11.80;99.90;;;;;;5098203;28;19939;-69
2023/12/24 12:53:24;;;;;;;;;;;11.90;99.90;;;;;;5094508;28;19924;-70
2023/12/24 12:55:49;;;;;;;;;;;11.90;99.90;;;;;;5075423;28;19973;-69
2023/12/24 12:58:15;;;;;;;;;;;11.90;99.90;;;;;;5096130;28;19935;-69
2023/12/24 13:00:40;;;;;;;;;;;11.90;99.90;;;;;;5072915;28;20388;-70
2023/12/24 13:03:07;;;;;;;;;;;11.90;99.90;;;;;;5057054;28;20383;-68
2023/12/24 13:05:32;;;;;;;;;;;11.90;99.90;;;;;;5098346;28;20293;-70
2023/12/24 13:07:59;;;;;;;;;;;11.90;99.90;;;;;;5099843;28;19928;-70
2023/12/24 13:10:32;;;;;;;;;;;11.90;99.90;;;;;;5096350;28;19939;-70
2023/12/24 13:13:10;;;;;;;;;;;11.80;99.90;;;;;;5097155;28;19928;-70
2023/12/24 13:15:35;;;;;;;;;;;11.90;99.90;;;;;;5096587;28;19930;-70
2023/12/24 13:18:24;;;;;;;;;;;11.80;99.90;;;;;;5099790;28;19931;-69
2023/12/24 13:20:51;;;;;;;;;;;11.80;99.90;;;;;;5078458;28;19979;-69
2023/12/24 13:23:20;;;;;;;;;;;11.70;99.90;;;;;;5081117;28;19934;-69
2023/12/24 13:25:46;;;;;;;;;;;11.70;99.90;;;;;;5094657;28;20408;-69
2023/12/24 13:28:13;;;;;;;;;;;11.80;99.90;;;;;;5077397;28;19932;-69
2023/12/24 13:30:39;;;;;;;;;;;11.80;99.90;;;;;;5100848;28;19976;-69
2023/12/24 13:33:05;;;;;;;;;;;11.80;99.90;;;;;;5097813;28;19931;-69
2023/12/24 13:35:38;;;;;;;;;;;11.70;99.90;;;;;;5081233;28;20280;-69
2023/12/24 13:38:07;;;;;;;;;;;11.80;99.90;;;;;;5098816;28;19924;-70
2023/12/24 13:40:33;;;;;;;;;;;11.60;99.90;;;;;;5095519;28;19977;-70
2023/12/24 13:42:58;;;;;;;;;;;11.60;99.90;;;;;;5090324;28;19932;-69
2023/12/24 13:45:24;;;;;;;;;;;11.60;99.90;;;;;;5079615;28;20006;-69
2023/12/24 13:47:49;;;;;;;;;;;11.60;99.90;;;;;;5081164;28;19924;-69
2023/12/24 13:50:15;;;;;;;;;;;11.60;99.90;;;;;;5100386;28;19924;-70
2023/12/24 13:52:40;;;;;;;;;;;11.70;99.90;;;;;;5097056;28;19936;-69
2023/12/24 13:55:06;;;;;;;;;;;11.60;99.90;;;;;;5094913;28;19924;-69
2023/12/24 13:57:33;;;;;;;;;;;11.60;99.90;;;;;;5096100;28;20344;-69
2023/12/24 13:59:59;;;;;;;;;;;11.60;99.90;;;;;;5092844;28;20302;-70
2023/12/24 14:02:24;;;;;;;;;;;11.60;99.90;;;;;;5079580;28;19981;-69
2023/12/24 14:04:50;;;;;;;;;;;11.50;99.90;;;;;;5100182;28;19973;-69
2023/12/24 14:07:16;;;;;;;;;;;11.50;99.90;;;;;;5093749;28;20341;-69
2023/12/24 14:09:43;;;;;;;;;;;11.50;99.90;;;;;;5099750;28;19938;-68
2023/12/24 14:12:08;;;;;;;;;;;11.50;99.90;;;;;;5096720;28;19988;-69
2023/12/24 14:14:34;;;;;;;;;;;11.50;99.90;;;;;;5096965;28;19924;-69
2023/12/24 14:16:59;;;;;;;;;;;11.50;99.90;;;;;;5079508;28;19938;-69
2023/12/24 14:19:25;;;;;;;;;;;11.50;99.90;;;;;;5101019;28;20958;-68
2023/12/24 14:21:50;;;;;;;;;;;11.50;99.90;;;;;;5097605;28;19928;-68